createdAt,value
2022-11-19T00:02:20.479Z,93033.94
2022-11-19T00:07:24.126Z,93028.00
2022-11-19T00:12:45.800Z,93019.44
2022-11-19T00:17:49.722Z,93008.72
2022-11-19T00:22:57.540Z,93018.06
2022-11-19T00:28:01.989Z,93003.53
2022-11-19T00:33:06.038Z,93016.34
2022-11-19T00:38:10.029Z,93022.03
2022-11-19T00:43:32.142Z,93020.31
2022-11-19T00:48:35.245Z,93020.91
2022-11-19T00:53:39.188Z,93039.09
2022-11-19T00:58:43.012Z,93027.69
2022-11-19T01:03:46.326Z,93017.97
2022-11-19T01:08:51.388Z,92994.00
2022-11-19T01:13:55.670Z,93033.66
2022-11-19T01:18:59.253Z,93030.91
2022-11-19T01:24:04.102Z,93030.56
2022-11-19T01:29:08.014Z,93044.53
2022-11-19T01:34:11.613Z,93043.56
2022-11-19T01:39:15.262Z,93013.75
2022-11-19T01:44:59.453Z,93037.38
2022-11-19T01:50:03.302Z,93039.06
2022-11-19T01:55:08.033Z,93030.31
2022-11-19T02:00:12.685Z,93009.25
2022-11-19T02:05:16.559Z,93014.63
2022-11-19T02:10:20.083Z,93012.28
2022-11-19T02:15:38.842Z,93015.97
2022-11-19T02:21:08.913Z,93016.56
2022-11-19T02:26:30.765Z,93024.56
2022-11-19T02:31:55.156Z,92995.28
2022-11-19T02:37:01.003Z,93014.38
2022-11-19T02:42:22.374Z,93014.25
2022-11-19T02:47:48.634Z,93017.50
2022-11-19T02:52:52.845Z,93010.16
2022-11-19T03:04:30.753Z,93015.72
2022-11-19T03:09:38.106Z,93007.41
2022-11-19T03:15:13.124Z,93008.16
2022-11-19T03:20:31.917Z,93009.53
2022-11-19T03:25:56.050Z,93011.81
2022-11-19T03:31:01.334Z,93000.91
2022-11-19T03:36:32.377Z,93003.50
2022-11-19T03:41:38.432Z,93010.53
2022-11-19T03:46:44.587Z,93015.72
2022-11-19T03:51:53.523Z,93002.25
2022-11-19T03:56:59.142Z,93019.19
2022-11-19T04:02:07.175Z,93027.09
2022-11-19T04:07:14.852Z,93023.94
2022-11-19T04:12:20.818Z,93012.88
2022-11-19T04:17:23.913Z,93015.97
2022-11-19T04:22:27.502Z,93017.31
2022-11-19T04:27:30.923Z,93022.00
2022-11-19T04:32:34.946Z,93005.38
2022-11-19T04:37:38.202Z,93019.25
2022-11-19T04:42:42.235Z,93029.22
2022-11-19T04:47:45.227Z,93023.00
2022-11-19T04:52:48.665Z,93018.78
2022-11-19T04:57:53.221Z,93026.94
2022-11-19T05:02:57.093Z,93026.97
2022-11-19T05:08:00.084Z,93023.00
2022-11-19T05:13:03.807Z,93024.31
2022-11-19T05:18:07.846Z,93028.91
2022-11-19T05:23:11.579Z,93029.47
2022-11-19T05:28:15.004Z,93032.19
2022-11-19T05:33:18.040Z,93020.53
2022-11-19T05:38:21.459Z,93031.63
2022-11-19T05:43:25.290Z,93019.84
2022-11-19T05:48:29.124Z,93012.97
2022-11-19T05:53:33.098Z,93022.09
2022-11-19T05:58:36.561Z,93024.38
2022-11-19T06:03:41.134Z,93024.75
2022-11-19T06:08:44.563Z,93018.31
2022-11-19T06:13:48.142Z,93021.28
2022-11-19T06:18:51.110Z,93019.25
2022-11-19T06:23:57.205Z,93014.16
2022-11-19T06:29:01.180Z,93012.50
2022-11-19T06:34:04.692Z,93011.13
2022-11-19T06:39:08.298Z,93025.72
2022-11-19T06:44:11.323Z,93018.66
2022-11-19T06:49:19.937Z,93023.56
2022-11-19T06:54:23.346Z,93039.84
2022-11-19T06:59:26.343Z,93032.72
2022-11-19T07:04:29.564Z,93039.56
2022-11-19T07:09:32.926Z,93035.44
2022-11-19T07:14:36.432Z,93039.13
2022-11-19T07:19:40.596Z,93049.34
2022-11-19T07:24:43.663Z,93049.50
2022-11-19T07:29:47.678Z,93060.13
2022-11-19T07:34:50.655Z,93047.69
2022-11-19T07:39:54.198Z,93054.13
2022-11-19T07:44:57.654Z,93048.06
2022-11-19T07:50:01.049Z,93057.44
2022-11-19T07:55:04.437Z,93062.09
2022-11-19T08:00:08.686Z,93069.50
2022-11-19T08:05:18.547Z,93068.28
2022-11-19T08:10:22.350Z,93068.28
2022-11-19T08:15:26.043Z,93068.06
2022-11-19T08:20:29.689Z,93047.06
2022-11-19T08:25:33.475Z,93054.25
2022-11-19T08:30:36.560Z,93062.88
2022-11-19T08:35:41.627Z,93070.50
2022-11-19T08:40:51.891Z,93063.41
2022-11-19T08:45:54.979Z,93057.03
2022-11-19T08:50:58.855Z,93072.47
2022-11-19T08:56:01.895Z,93078.03
2022-11-19T09:01:12.752Z,93061.50
2022-11-19T09:06:17.094Z,93072.63
2022-11-19T09:11:21.423Z,93070.13
2022-11-19T09:16:25.171Z,93070.72
2022-11-19T09:21:34.156Z,93074.75
2022-11-19T09:26:37.739Z,93066.81
2022-11-19T09:31:40.736Z,93075.13
2022-11-19T09:36:44.255Z,93083.34
2022-11-19T09:42:25.746Z,93076.44
2022-11-19T09:48:02.279Z,93077.34
2022-11-19T09:53:21.923Z,93074.16
2022-11-19T09:58:27.914Z,93064.63
2022-11-19T10:03:33.928Z,93055.81
2022-11-19T10:09:14.991Z,93061.78
2022-11-19T10:14:40.799Z,93045.59
2022-11-19T10:20:14.154Z,93040.63
2022-11-19T10:25:39.080Z,93044.56
2022-11-19T10:30:50.183Z,93031.78
2022-11-19T10:36:03.201Z,93026.13
2022-11-19T10:41:15.627Z,93014.44
2022-11-19T10:46:23.157Z,93023.44
2022-11-19T10:51:34.292Z,93019.19
2022-11-19T10:56:42.568Z,93016.16
2022-11-19T11:01:49.700Z,93023.28
2022-11-19T11:07:01.088Z,93011.19
2022-11-19T11:12:35.790Z,93000.72
2022-11-19T11:17:39.967Z,93006.31
2022-11-19T11:22:46.809Z,92997.53
2022-11-19T11:28:12.735Z,92979.94
2022-11-19T11:33:38.836Z,92967.69
2022-11-19T11:38:54.944Z,92957.03
2022-11-19T11:44:20.808Z,92939.38
2022-11-19T11:49:27.685Z,92947.19
2022-11-19T11:54:31.088Z,92937.09
2022-11-19T11:59:36.305Z,92954.59
2022-11-19T12:04:40.274Z,92953.06
2022-11-19T12:10:05.923Z,92954.69
2022-11-19T12:15:47.468Z,92949.16
2022-11-19T12:21:00.675Z,92934.00
2022-11-19T12:26:23.100Z,92948.31
2022-11-19T12:31:53.295Z,92953.69
2022-11-19T12:37:16.313Z,92941.03
2022-11-19T12:42:53.142Z,92930.22
2022-11-19T12:48:23.609Z,92928.03
2022-11-19T12:53:52.065Z,92920.09
2022-11-19T12:59:17.562Z,92922.72
2022-11-19T13:04:32.385Z,92920.81
2022-11-19T13:09:59.907Z,92907.38
2022-11-19T13:15:15.607Z,92909.69
2022-11-19T13:20:40.183Z,92919.03
2022-11-19T13:25:51.517Z,92919.91
2022-11-19T13:31:01.794Z,92931.72
2022-11-19T13:36:30.235Z,92920.75
2022-11-19T13:42:05.848Z,92922.88
2022-11-19T13:47:29.280Z,92912.06
2022-11-19T13:52:38.526Z,92901.91
2022-11-19T13:57:45.632Z,92905.13
2022-11-19T14:03:19.599Z,92906.72
2022-11-19T14:08:47.480Z,92922.50
2022-11-19T14:13:56.752Z,92914.31
2022-11-19T14:19:21.496Z,92927.34
2022-11-19T14:24:43.941Z,92933.59
2022-11-19T14:29:47.447Z,92935.00
2022-11-19T14:35:03.078Z,92930.59
2022-11-19T14:40:17.723Z,92950.66
2022-11-19T14:45:22.270Z,92949.34
2022-11-19T14:50:28.880Z,92957.66
2022-11-19T14:55:35.443Z,92956.91
2022-11-19T15:00:41.281Z,92956.91
2022-11-19T15:05:47.196Z,92964.44
2022-11-19T15:11:12.314Z,92967.41
2022-11-19T15:16:25.785Z,92961.56
2022-11-19T15:21:51.667Z,92970.84
2022-11-19T15:27:10.488Z,92974.94
2022-11-19T15:32:28.957Z,92976.25
2022-11-19T15:37:55.003Z,92993.50
2022-11-19T15:43:04.383Z,92990.84
2022-11-19T15:48:13.315Z,92953.47
2022-11-19T15:53:19.282Z,92969.25
2022-11-19T15:58:46.384Z,92944.03
2022-11-19T16:03:53.062Z,92941.16
2022-11-19T16:09:05.265Z,92934.38
2022-11-19T16:14:48.807Z,92926.94
2022-11-19T16:20:22.700Z,92925.88
2022-11-19T16:25:43.543Z,92909.41
2022-11-19T16:30:50.500Z,92938.91
2022-11-19T16:36:12.024Z,92922.28
2022-11-19T16:41:41.480Z,92936.41
2022-11-19T16:46:46.605Z,92933.19
2022-11-19T16:51:50.122Z,92947.53
2022-11-19T16:56:53.861Z,92948.03
2022-11-19T17:02:00.248Z,92944.47
2022-11-19T17:07:14.794Z,92951.53
2022-11-19T17:12:27.773Z,92954.78
2022-11-19T17:17:41.068Z,92955.22
2022-11-19T17:22:45.146Z,92950.19
2022-11-19T17:27:55.355Z,92962.50
2022-11-19T17:33:06.003Z,92966.91
2022-11-19T17:38:13.711Z,92943.81
2022-11-19T17:43:41.322Z,92963.38
2022-11-19T17:48:46.276Z,92971.25
2022-11-19T17:53:54.809Z,92977.47
2022-11-19T17:58:59.849Z,92981.09
2022-11-19T18:04:02.948Z,92981.09
2022-11-19T18:09:06.503Z,92985.69
2022-11-19T18:14:13.028Z,92985.28
2022-11-19T18:19:28.759Z,92993.25
2022-11-19T18:24:32.442Z,93009.47
2022-11-19T18:29:35.631Z,93019.03
2022-11-19T18:34:38.711Z,93007.31
2022-11-19T18:39:41.744Z,93004.81
2022-11-19T18:44:45.247Z,93002.13
2022-11-19T18:49:48.432Z,93001.63
2022-11-19T18:54:51.714Z,93003.13
2022-11-19T18:59:54.952Z,93009.03
2022-11-19T19:04:58.010Z,93003.41
2022-11-19T19:10:01.952Z,93010.38
2022-11-19T19:15:06.967Z,93007.03
2022-11-19T19:20:10.543Z,93013.19
2022-11-19T19:25:14.632Z,93014.44
2022-11-19T19:30:18.977Z,93017.78
2022-11-19T19:35:22.774Z,93021.88
2022-11-19T19:40:25.781Z,93020.16
2022-11-19T19:45:29.734Z,93021.81
2022-11-19T19:50:33.244Z,93007.84
2022-11-19T19:55:36.251Z,93034.56
2022-11-19T20:00:39.745Z,93018.38
2022-11-19T20:05:49.371Z,93012.56
2022-11-19T20:10:52.838Z,93028.28
2022-11-19T20:15:58.779Z,93039.34
2022-11-19T20:21:01.940Z,93042.28
2022-11-19T20:26:23.537Z,93028.84
2022-11-19T20:31:27.239Z,93041.47
2022-11-19T20:36:33.583Z,93033.88
2022-11-19T20:41:55.126Z,93023.53
2022-11-19T20:47:03.379Z,93017.06
2022-11-19T20:52:08.493Z,93010.84
2022-11-19T20:57:11.728Z,92991.13
2022-11-19T21:02:14.897Z,92986.31
2022-11-19T21:07:17.967Z,92978.22
2022-11-19T21:12:21.514Z,92986.31
2022-11-19T21:17:25.138Z,92992.03
2022-11-19T21:22:28.131Z,92983.97
2022-11-19T21:27:32.053Z,92975.28
2022-11-19T21:32:35.113Z,92988.53
2022-11-19T21:37:38.711Z,92979.84
2022-11-19T21:42:42.161Z,92985.13
2022-11-19T21:47:45.247Z,92976.50
2022-11-19T21:52:48.394Z,92972.44
2022-11-19T21:57:52.483Z,92976.91
2022-11-19T22:02:55.896Z,92985.88
2022-11-19T22:08:00.316Z,92979.94
2022-11-19T22:13:04.388Z,92977.09
2022-11-19T22:18:07.540Z,92980.81
2022-11-19T22:23:10.642Z,92971.91
2022-11-19T22:28:14.063Z,92944.88
2022-11-19T22:33:17.171Z,92950.31
2022-11-19T22:38:20.988Z,92947.91
2022-11-19T22:43:23.945Z,92944.38
2022-11-19T22:48:32.140Z,92939.94
2022-11-19T22:53:36.752Z,92952.97
2022-11-19T22:58:40.137Z,92947.94
2022-11-19T23:03:43.519Z,92950.03
2022-11-19T23:08:47.143Z,92952.31
2022-11-19T23:13:50.293Z,92948.19
2022-11-19T23:18:53.976Z,92967.81
2022-11-19T23:24:00.166Z,92958.78
2022-11-19T23:29:04.640Z,92947.22
2022-11-19T23:34:08.456Z,92936.16
2022-11-19T23:39:15.855Z,92946.16
2022-11-19T23:44:19.485Z,92933.28
2022-11-19T23:49:23.259Z,92926.09
2022-11-19T23:54:26.643Z,92919.63
2022-11-19T23:59:30.001Z,92908.19
